• Join FlightAware (Why Join?)
  • Login
  • US Flag 
05:46AM EDT


 

Airport Tracker/Info


-or-


 

Live Flight TrackerFlight Track Log ✈ AWE3268 ✈ 28-Dec-2013 ✈ KPHL - KMHT

Flight Track Log - Related Links

Times and Time Zones

All times are in EST time to prevent confusion due to time zone crossing. See the AWE3268 flight status page for this flight to view local times or setup timezone preferences in your user account.

Time Position Orientation Groundspeed Altitude Reporting Facility
EST Latitude Longitude Course Direction KTS MPH feet Rate Location/Type
04:19PM 39.8667 -75.2667 37° Northeast 151 174 900  Level Philadelphia TRACON
04:19PM 39.8500 -75.2833 218° Southwest 146 168 2,100 2,040 Climbing Philadelphia TRACON
04:20PM 39.7833 -75.3333 210° Southwest 255 293 4,400 2,940 Climbing Philadelphia TRACON
04:21PM 40.0933 -74.9826 37° Northeast  Level Estimated
04:21PM 39.7167 -75.3000 159° South 282 325 8,300  Level Philadelphia TRACON
04:22PM 40.1668 -74.8962 North  Level Estimated
04:22PM 39.6333 -75.2667 163° South 320 368 10,900  Level Philadelphia TRACON
04:23PM 40.2403 -74.8095 37° Northeast  Level Estimated
04:24PM 40.3137 -74.7227 37° Northeast  Level Estimated
04:25PM 39.6714 -75.0458 77° East 339 390 12,000  Level New York Center
04:26PM 39.7408 -74.9661 41° Northeast 334 384 12,000  Level New York Center
04:27PM 39.7803 -74.8525 66° East 325 374 12,000 960 Level New York Center
04:28PM 39.8014 -74.7211 78° East 347 399 14,000 2,340 Climbing New York Center
04:29PM 39.8772 -74.6364 41° Northeast 341 392 16,700 2,460 Climbing New York Center
04:30PM 39.9569 -74.5567 37° Northeast 346 398 19,000 2,220 Climbing New York Center
04:31PM 40.0408 -74.4744 37° Northeast 360 414 21,200 2,220 Climbing New York Center
04:32PM 40.1292 -74.3869 37° Northeast 377 434 23,500 1,980 Climbing New York Center
04:33PM 40.2172 -74.2992 37° Northeast 385 443 25,200 1,680 Climbing New York Center
04:34PM 40.3075 -74.2058 38° Northeast 399 459 26,900 1,560 Climbing New York Center
04:35PM 40.4019 -74.1125 37° Northeast 404 465 28,400 1,020 Climbing New York Center
04:36PM 40.5056 -74.0519 24° Northeast 411 473 29,000 300 Climbing New York Center
04:37PM 40.6164 -74.0408 North 378 435 29,000  Level New York Center
04:38PM 40.8194 -74.0222 North 431 496 29,000  Level Boston Center
04:39PM 40.9425 -74.0086 North 438 504 29,000  Level Boston Center
04:40PM 41.0653 -73.9958 North 441 507 29,000  Level Boston Center
04:41PM 41.1881 -73.9811 North 441 507 29,000  Level Boston Center
04:42PM 41.3119 -73.9675 North 443 510 29,000  Level Boston Center
04:43PM 41.4344 -73.9539 North 442 509 29,000  Level Boston Center
04:44PM 41.5561 -73.8928 21° North 469 540 29,000  Level Boston Center
04:45PM 41.6961 -73.7983 27° Northeast 471 542 29,000  Level Boston Center
04:46PM 41.8108 -73.7192 27° Northeast 472 543 29,000  Level Boston Center
04:47PM 41.9267 -73.6403 27° Northeast 470 541 29,000  Level Boston Center
04:49PM 42.0428 -73.5608 27° Northeast 467 537 29,000 -240 Level Boston Center
04:50PM 42.1619 -73.4772 27° Northeast 471 542 28,600 -960 Descending Boston Center
04:51PM 42.2761 -73.3978 27° Northeast 464 534 27,100 -1,740 Descending Boston Center
04:52PM 42.3775 -73.2914 38° Northeast 472 543 25,200 -1,920 Descending Boston Center
04:53PM 42.4367 -73.1381 62° Northeast 475 547 23,300 -1,860 Descending Boston Center
04:54PM 42.4881 -72.9781 66° East 465 535 21,500 -1,200 Descending Boston Center
04:55PM 42.5369 -72.8244 67° East 451 519 21,000 -420 Descending Boston Center
04:56PM 42.5867 -72.6700 66° East 447 514 20,700 -1,440 Descending Boston Center
04:57PM 42.6392 -72.5058 66° East 445 512 18,100 -2,280 Descending Boston Center
04:58PM 42.6847 -72.3633 66° East 416 479 16,000 -2,160 Descending Boston Center
04:59PM 42.7283 -72.2222 67° East 379 436 13,800 -2,160 Descending Boston Center
05:00PM 42.7644 -72.0925 69° East 344 396 11,700 -1,980 Descending Boston Center
05:01PM 42.7811 -71.9678 80° East 337 388 9,900 -1,740 Descending Boston Center
05:02PM 42.7828 -71.8461 89° East 326 375 8,200 -1,500 Descending Boston Center
05:03PM 42.7736 -71.7272 96° East 318 366 6,800 -1,440 Descending Boston Center
05:04PM 42.7642 -71.6044 96° East 304 350 5,300 -1,380 Descending Boston Center
05:05PM 42.7581 -71.5033 95° East 273 314 4,100 -1,140 Descending Boston Center
05:06PM 42.7594 -71.4139 89° East 240 276 3,100 -960 Descending Boston Center
05:07PM 42.7944 -71.3586 49° Northeast 212 244 2,200 -600 Descending Boston Center
05:08PM 42.8433 -71.3814 341° North 172 198 2,000 -480 Descending Boston Center
05:09PM 42.8783 -71.4006 338° Northwest 135 155 1,300 -720 Descending Boston Center
05:10PM 42.9100 -71.4206 335° Northwest 126 145 600 -480 Descending Boston Center
05:11PM 42.9414 -71.4406 335° Northwest 127 146 400 -240 Descending Boston Center